createdAt,value
2022-09-25T00:00:34.215Z,94324.53
2022-09-25T00:03:00.984Z,94327.72
2022-09-25T00:05:27.684Z,94333.00
2022-09-25T00:07:57.046Z,94332.53
2022-09-25T00:10:29.569Z,94324.88
2022-09-25T00:12:56.458Z,94304.31
2022-09-25T00:15:23.253Z,94310.63
2022-09-25T00:17:50.356Z,94306.81
2022-09-25T00:20:20.075Z,94315.72
2022-09-25T00:22:47.665Z,94318.94
2022-09-25T00:25:15.683Z,94297.84
2022-09-25T00:27:45.695Z,94319.47
2022-09-25T00:30:14.675Z,94289.59
2022-09-25T00:32:41.426Z,94304.75
2022-09-25T00:35:08.568Z,94315.72
2022-09-25T00:37:36.293Z,94305.19
2022-09-25T00:40:05.182Z,94309.81
2022-09-25T00:42:33.121Z,94313.47
2022-09-25T00:45:02.211Z,94315.03
2022-09-25T00:47:28.988Z,94313.06
2022-09-25T00:49:58.225Z,94318.94
2022-09-25T00:52:26.847Z,94272.22
2022-09-25T00:54:59.047Z,94294.28
2022-09-25T00:57:30.131Z,94306.97
2022-09-25T01:00:05.843Z,94310.09
2022-09-25T01:02:36.566Z,94306.38
2022-09-25T01:05:08.251Z,94303.09
2022-09-25T01:07:38.436Z,94308.34
2022-09-25T01:10:08.225Z,94307.63
2022-09-25T01:12:44.946Z,94303.16
2022-09-25T01:15:18.572Z,94299.34
2022-09-25T01:17:55.074Z,94299.00
2022-09-25T01:20:43.166Z,94293.72
2022-09-25T01:23:48.657Z,94299.81
2022-09-25T01:26:50.684Z,94297.75
2022-09-25T01:29:31.187Z,94289.63
2022-09-25T01:32:11.177Z,94284.00
2022-09-25T01:34:45.923Z,94294.09
2022-09-25T01:37:24.058Z,94296.97
2022-09-25T01:40:03.015Z,94306.22
2022-09-25T01:42:55.559Z,94281.94
2022-09-25T01:45:30.350Z,94292.25
2022-09-25T01:48:00.211Z,94301.53
2022-09-25T01:50:38.762Z,94294.41
2022-09-25T01:53:12.352Z,94286.81
2022-09-25T01:55:54.509Z,94292.00
2022-09-25T01:58:29.030Z,94296.84
2022-09-25T02:01:06.551Z,94298.75
2022-09-25T02:03:44.238Z,94294.97
2022-09-25T02:06:17.013Z,94293.16
2022-09-25T02:08:49.602Z,94303.06
2022-09-25T02:11:16.755Z,94305.28
2022-09-25T02:13:49.711Z,94293.13
2022-09-25T02:16:22.093Z,94288.91
2022-09-25T02:19:08.903Z,94289.41
2022-09-25T02:21:43.741Z,94269.84
2022-09-25T02:24:34.035Z,94303.06
2022-09-25T02:27:00.770Z,94289.66
2022-09-25T02:29:27.630Z,94279.84
2022-09-25T02:31:56.595Z,94280.38
2022-09-25T02:34:23.990Z,94291.00
2022-09-25T02:36:51.579Z,94279.00
2022-09-25T02:39:22.612Z,94280.75
2022-09-25T02:42:26.495Z,94282.66
2022-09-25T02:45:16.514Z,94281.81
2022-09-25T02:47:52.195Z,94253.53
2022-09-25T02:50:21.751Z,94245.41
2022-09-25T02:52:53.371Z,94255.41
2022-09-25T02:55:25.701Z,94272.25
2022-09-25T02:57:58.798Z,94278.34
2022-09-25T03:00:25.603Z,94265.81
2022-09-25T03:02:56.614Z,94252.25
2022-09-25T03:05:25.177Z,94242.63
2022-09-25T03:08:12.116Z,94260.03
2022-09-25T03:10:38.958Z,94239.47
2022-09-25T03:13:18.080Z,94253.34
2022-09-25T03:15:50.796Z,94265.41
2022-09-25T03:18:18.295Z,94256.22
2022-09-25T03:20:45.922Z,94249.19
2022-09-25T03:23:12.982Z,94244.75
2022-09-25T03:25:39.757Z,94234.50
2022-09-25T03:28:13.281Z,94234.31
2022-09-25T03:30:41.094Z,94235.47
2022-09-25T03:33:10.531Z,94239.25
2022-09-25T03:35:40.607Z,94241.97
2022-09-25T03:38:10.508Z,94242.03
2022-09-25T03:40:37.455Z,94238.91
2022-09-25T03:45:30.074Z,94245.69
2022-09-25T03:47:56.811Z,94250.25
2022-09-25T03:50:23.523Z,94228.16
2022-09-25T03:52:50.227Z,94237.09
2022-09-25T03:55:17.290Z,94240.50
2022-09-25T03:57:44.068Z,94240.13
2022-09-25T04:00:11.444Z,94236.34
2022-09-25T04:02:40.754Z,94236.38
2022-09-25T04:05:08.059Z,94207.66
2022-09-25T04:07:35.021Z,94209.22
2022-09-25T04:10:02.244Z,94220.94
2022-09-25T04:12:29.082Z,94236.81
2022-09-25T04:14:55.762Z,94232.44
2022-09-25T04:17:22.495Z,94237.72
2022-09-25T04:19:49.269Z,94229.81
2022-09-25T04:22:16.055Z,94213.09
2022-09-25T04:24:49.063Z,94216.41
2022-09-25T04:27:22.216Z,94223.16
2022-09-25T04:29:49.654Z,94197.19
2022-09-25T04:32:35.391Z,94218.19
2022-09-25T04:35:02.920Z,94227.56
2022-09-25T04:37:29.660Z,94223.81
2022-09-25T04:39:57.494Z,94239.69
2022-09-25T04:42:25.609Z,94241.84
2022-09-25T04:44:54.890Z,94232.13
2022-09-25T04:47:22.730Z,94222.94
2022-09-25T04:49:50.079Z,94223.97
2022-09-25T04:52:18.931Z,94231.72
2022-09-25T04:54:46.214Z,94230.09
2022-09-25T04:57:39.147Z,94238.88
2022-09-25T05:00:08.146Z,94224.84
2022-09-25T05:02:35.227Z,94216.88
2022-09-25T05:05:02.000Z,94185.81
2022-09-25T05:07:28.815Z,94211.47
2022-09-25T05:09:55.510Z,94229.53
2022-09-25T05:12:22.266Z,94238.06
2022-09-25T05:14:49.039Z,94222.72
2022-09-25T05:17:15.855Z,94223.22
2022-09-25T05:19:42.583Z,94217.19
2022-09-25T05:22:09.345Z,94196.44
2022-09-25T05:24:36.285Z,94218.22
2022-09-25T05:27:04.078Z,94211.84
2022-09-25T05:29:31.606Z,94226.44
2022-09-25T05:31:58.352Z,94221.72
2022-09-25T05:34:25.076Z,94238.84
2022-09-25T05:36:52.327Z,94236.34
2022-09-25T05:39:19.377Z,94241.91
2022-09-25T05:41:46.522Z,94239.47
2022-09-25T05:44:13.278Z,94232.34
2022-09-25T05:46:40.591Z,94220.19
2022-09-25T05:49:07.749Z,94225.31
2022-09-25T05:51:34.617Z,94222.53
2022-09-25T05:54:01.643Z,94221.31
2022-09-25T05:56:28.478Z,94217.19
2022-09-25T05:58:58.559Z,94222.69
2022-09-25T06:01:26.150Z,94216.56
2022-09-25T06:03:52.925Z,94222.50
2022-09-25T06:06:23.791Z,94222.00
2022-09-25T06:08:54.741Z,94232.97
2022-09-25T06:11:22.722Z,94202.34
2022-09-25T06:13:54.310Z,94206.78
2022-09-25T06:16:21.567Z,94201.09
2022-09-25T06:18:48.614Z,94225.34
2022-09-25T06:21:15.523Z,94215.69
2022-09-25T06:23:45.003Z,94197.28
2022-09-25T06:26:12.659Z,94205.00
2022-09-25T06:28:39.616Z,94215.13
2022-09-25T06:31:07.105Z,94230.72
2022-09-25T06:33:33.961Z,94219.44
2022-09-25T06:36:00.981Z,94229.16
2022-09-25T06:38:27.965Z,94222.50
2022-09-25T06:40:59.289Z,94222.44
2022-09-25T06:43:27.901Z,94223.06
2022-09-25T06:45:54.777Z,94237.13
2022-09-25T06:48:22.306Z,94224.09
2022-09-25T06:50:55.259Z,94228.59
2022-09-25T06:53:24.587Z,94218.25
2022-09-25T06:55:52.429Z,94229.00
2022-09-25T06:58:21.242Z,94228.38
2022-09-25T07:00:52.663Z,94230.72
2022-09-25T07:03:38.380Z,94242.72
2022-09-25T07:06:07.352Z,94229.56
2022-09-25T07:08:34.639Z,94232.56
2022-09-25T07:11:02.276Z,94205.53
2022-09-25T07:13:31.931Z,94200.34
2022-09-25T07:16:04.454Z,94211.44
2022-09-25T07:18:32.204Z,94211.50
2022-09-25T07:21:05.360Z,94187.63
2022-09-25T07:23:33.610Z,94206.16
2022-09-25T07:26:11.878Z,94197.16
2022-09-25T07:28:40.731Z,94218.88
2022-09-25T07:31:27.974Z,94214.13
2022-09-25T07:33:55.444Z,94183.06
2022-09-25T07:36:22.218Z,94221.75
2022-09-25T07:38:51.022Z,94211.41
2022-09-25T07:41:19.688Z,94199.59
2022-09-25T07:43:46.742Z,94224.59
2022-09-25T07:46:13.673Z,94198.72
2022-09-25T07:48:40.510Z,94201.31
2022-09-25T07:51:10.651Z,94217.00
2022-09-25T07:53:38.822Z,94187.53
2022-09-25T07:56:07.066Z,94204.03
2022-09-25T07:58:35.655Z,94213.38
2022-09-25T08:01:05.121Z,94219.19
2022-09-25T08:03:32.521Z,94243.19
2022-09-25T08:06:01.640Z,94250.00
2022-09-25T08:08:29.292Z,94211.56
2022-09-25T08:11:03.767Z,94219.41
2022-09-25T08:13:32.747Z,94212.88
2022-09-25T08:16:02.569Z,94184.22
2022-09-25T08:18:29.504Z,94198.47
2022-09-25T08:21:04.662Z,94214.72
2022-09-25T08:23:32.599Z,94222.38
2022-09-25T08:26:00.274Z,94227.59
2022-09-25T08:28:27.083Z,94221.41
2022-09-25T08:30:54.305Z,94226.41
2022-09-25T08:33:21.123Z,94207.63
2022-09-25T08:35:59.534Z,94201.81
2022-09-25T08:38:27.289Z,94199.22
2022-09-25T08:41:09.609Z,94231.09
2022-09-25T08:43:43.156Z,94238.13
2022-09-25T08:46:47.989Z,94238.78
2022-09-25T08:49:15.323Z,94261.00
2022-09-25T08:51:49.410Z,94249.56
2022-09-25T08:54:23.786Z,94231.84
2022-09-25T08:57:15.596Z,94223.34
2022-09-25T08:59:46.738Z,94202.28
2022-09-25T09:02:17.561Z,94206.81
2022-09-25T09:04:55.700Z,94210.13
2022-09-25T09:07:28.173Z,94226.41
2022-09-25T09:10:13.958Z,94238.78
2022-09-25T09:12:46.013Z,94179.94
2022-09-25T09:15:18.264Z,94204.84
2022-09-25T09:17:45.036Z,94228.97
2022-09-25T09:20:22.950Z,94239.66
2022-09-25T09:22:53.263Z,94206.94
2022-09-25T09:25:51.492Z,94175.09
2022-09-25T09:28:18.294Z,94187.03
2022-09-25T09:31:05.374Z,94230.09
2022-09-25T09:33:52.442Z,94234.28
2022-09-25T09:36:35.655Z,94210.09
2022-09-25T09:39:11.470Z,94191.25
2022-09-25T09:42:13.595Z,94229.50
2022-09-25T09:45:09.156Z,94217.88
2022-09-25T09:48:25.852Z,94189.75
2022-09-25T09:50:59.726Z,94193.16
2022-09-25T09:53:39.829Z,94215.91
2022-09-25T09:56:31.359Z,94196.44
2022-09-25T09:59:10.978Z,94197.84
2022-09-25T10:01:42.183Z,94200.84
2022-09-25T10:04:13.956Z,94195.72
2022-09-25T10:06:58.801Z,94201.84
2022-09-25T10:09:27.937Z,94193.25
2022-09-25T10:12:01.747Z,94183.38
2022-09-25T10:14:34.679Z,94199.41
2022-09-25T10:17:02.128Z,94159.38
2022-09-25T10:19:34.842Z,94198.03
2022-09-25T10:22:16.810Z,94190.50
2022-09-25T10:24:51.554Z,94195.59
2022-09-25T10:27:28.815Z,94201.13
2022-09-25T10:30:24.764Z,94197.44
2022-09-25T10:33:15.487Z,94187.47
2022-09-25T10:35:45.973Z,94172.41
2022-09-25T10:38:43.247Z,94199.91
2022-09-25T10:41:23.124Z,94200.28
2022-09-25T10:43:55.444Z,94206.03
2022-09-25T10:46:55.039Z,94190.03
2022-09-25T10:49:44.588Z,94193.41
2022-09-25T10:52:19.877Z,94191.44
2022-09-25T10:54:46.708Z,94160.22
2022-09-25T10:57:34.641Z,94137.19
2022-09-25T11:00:03.487Z,94137.91
2022-09-25T11:02:41.060Z,94159.41
2022-09-25T11:05:17.875Z,94129.03
2022-09-25T11:07:54.935Z,94145.66
2022-09-25T11:10:34.056Z,94135.31
2022-09-25T11:13:05.044Z,94172.88
2022-09-25T11:15:31.773Z,94159.69
2022-09-25T11:17:59.856Z,94179.56
2022-09-25T11:20:30.216Z,94172.22
2022-09-25T11:23:44.895Z,94148.38
2022-09-25T11:26:27.364Z,94158.13
2022-09-25T11:29:04.566Z,94165.72
2022-09-25T11:31:40.645Z,94137.88
2022-09-25T11:34:18.702Z,94152.00
2022-09-25T11:36:51.197Z,94126.69
2022-09-25T11:40:04.423Z,94155.84
2022-09-25T11:42:53.724Z,94137.38
2022-09-25T11:45:27.714Z,94122.97
2022-09-25T11:48:01.286Z,94129.78
2022-09-25T11:50:45.315Z,94147.47
2022-09-25T11:53:37.811Z,94133.59
2022-09-25T11:56:40.078Z,94111.53
2022-09-25T11:59:55.557Z,94148.63
2022-09-25T12:02:40.918Z,94162.31
2022-09-25T12:05:45.616Z,94160.22
2022-09-25T12:08:36.315Z,94142.59
2022-09-25T12:11:14.569Z,94152.84
2022-09-25T12:14:10.912Z,94135.03
2022-09-25T12:16:59.627Z,94133.75
2022-09-25T12:20:05.192Z,94127.50
2022-09-25T12:22:44.675Z,94125.91
2022-09-25T12:25:18.716Z,94116.09
2022-09-25T12:27:51.638Z,94125.13
2022-09-25T12:30:45.312Z,94146.56
2022-09-25T12:33:14.416Z,94158.81
2022-09-25T12:35:49.858Z,94130.47
2022-09-25T12:38:50.846Z,94132.34
2022-09-25T12:41:43.831Z,94136.84
2022-09-25T12:44:25.123Z,94119.47
2022-09-25T12:47:03.386Z,94110.66
2022-09-25T12:49:40.609Z,94094.75
2022-09-25T12:52:40.958Z,94103.56
2022-09-25T12:55:16.502Z,94091.84
2022-09-25T12:57:52.218Z,94105.75
2022-09-25T13:00:29.037Z,94100.31
2022-09-25T13:03:08.804Z,94083.31
2022-09-25T13:05:44.447Z,94094.94
2022-09-25T13:08:25.755Z,94108.03
2022-09-25T13:10:53.988Z,94096.31
2022-09-25T13:13:27.055Z,94111.44
2022-09-25T13:16:00.813Z,94090.91
2022-09-25T13:18:30.299Z,94085.03
2022-09-25T13:20:58.639Z,94098.34
2022-09-25T13:23:25.343Z,94106.97
2022-09-25T13:26:01.825Z,94101.31
2022-09-25T13:28:36.250Z,94098.34
2022-09-25T13:31:10.222Z,94065.34
2022-09-25T13:33:45.744Z,94068.81
2022-09-25T13:36:25.282Z,94086.78
2022-09-25T13:39:23.663Z,94068.63
2022-09-25T13:41:59.863Z,94041.34
2022-09-25T13:44:42.223Z,94046.50
2022-09-25T13:47:24.105Z,94073.19
2022-09-25T13:50:13.744Z,94088.28
2022-09-25T13:52:40.429Z,94079.31
2022-09-25T13:55:20.283Z,94087.28
2022-09-25T13:57:57.395Z,94105.13
2022-09-25T14:00:36.273Z,94108.41
2022-09-25T14:03:04.790Z,94097.31
2022-09-25T14:05:36.794Z,94105.47
2022-09-25T14:08:14.990Z,94090.03
2022-09-25T14:10:48.415Z,94106.88
2022-09-25T14:13:16.838Z,94118.38
2022-09-25T14:15:45.093Z,94121.53
2022-09-25T14:18:40.693Z,94128.53
2022-09-25T14:21:10.350Z,94120.72
2022-09-25T14:23:55.017Z,94115.78
2022-09-25T14:26:27.029Z,94097.19
2022-09-25T14:28:56.750Z,94086.78
2022-09-25T14:31:32.788Z,94085.91
2022-09-25T14:34:17.840Z,94089.00
2022-09-25T14:36:54.411Z,94100.44
2022-09-25T14:39:29.521Z,94094.00
2022-09-25T14:42:07.595Z,94096.69
2022-09-25T14:48:07.095Z,94093.59
2022-09-25T14:50:40.473Z,94082.22
2022-09-25T14:53:14.466Z,94051.53
2022-09-25T14:55:49.192Z,94083.59
2022-09-25T14:58:22.354Z,94096.84
2022-09-25T15:00:53.130Z,94094.91
2022-09-25T15:03:26.766Z,94111.16
2022-09-25T15:05:53.698Z,94122.16
2022-09-25T15:08:34.567Z,94090.06
2022-09-25T15:11:12.184Z,94133.63
2022-09-25T15:13:39.872Z,94135.31
2022-09-25T15:16:38.319Z,94123.19
2022-09-25T15:19:20.552Z,94124.03
2022-09-25T15:21:51.200Z,94132.97
2022-09-25T15:24:24.123Z,94126.13
2022-09-25T15:27:02.773Z,94090.09
2022-09-25T15:29:44.054Z,94117.16
2022-09-25T15:32:17.119Z,94129.13
2022-09-25T15:34:44.178Z,94125.91
2022-09-25T15:37:29.232Z,94091.09
2022-09-25T15:39:56.676Z,94108.91
2022-09-25T15:42:23.643Z,94087.03
2022-09-25T15:44:50.509Z,94101.13
2022-09-25T15:47:35.623Z,94111.25
2022-09-25T15:50:13.660Z,94122.31
2022-09-25T15:52:40.539Z,94126.63
2022-09-25T15:55:12.855Z,94123.50
2022-09-25T15:57:39.623Z,94119.72
2022-09-25T16:00:34.748Z,94113.81
2022-09-25T16:03:22.782Z,94101.19
2022-09-25T16:05:51.812Z,94125.22
2022-09-25T16:08:24.545Z,94112.28
2022-09-25T16:11:16.833Z,94123.97
2022-09-25T16:13:51.896Z,94126.78
2022-09-25T16:16:31.987Z,94111.50
2022-09-25T16:19:21.730Z,94122.63
2022-09-25T16:21:49.074Z,94124.28
2022-09-25T16:24:21.547Z,94119.00
2022-09-25T16:26:55.231Z,94137.63
2022-09-25T16:29:25.475Z,94121.97
2022-09-25T16:31:54.367Z,94136.97
2022-09-25T16:34:34.231Z,94118.28
2022-09-25T16:37:05.479Z,94105.72
2022-09-25T16:39:38.230Z,94125.31
2022-09-25T16:42:29.707Z,94124.28
2022-09-25T16:45:14.851Z,94142.81
2022-09-25T16:47:45.602Z,94155.44
2022-09-25T16:50:16.408Z,94128.81
2022-09-25T16:52:44.386Z,94151.69
2022-09-25T16:55:18.484Z,94141.81
2022-09-25T16:57:46.389Z,94144.28
2022-09-25T17:00:16.698Z,94158.25
2022-09-25T17:02:46.043Z,94151.88
2022-09-25T17:05:20.324Z,94154.63
2022-09-25T17:07:49.374Z,94138.78
2022-09-25T17:10:19.038Z,94122.56
2022-09-25T17:12:52.766Z,94130.19
2022-09-25T17:15:33.838Z,94124.09
2022-09-25T17:18:02.145Z,94130.03
2022-09-25T17:20:34.089Z,94132.09
2022-09-25T17:23:01.022Z,94126.56
2022-09-25T17:25:38.185Z,94133.69
2022-09-25T17:28:06.687Z,94126.41
2022-09-25T17:30:33.670Z,94143.09
2022-09-25T17:33:05.167Z,94138.81
2022-09-25T17:35:52.145Z,94132.81
2022-09-25T17:38:19.110Z,94111.56
2022-09-25T17:40:47.711Z,94104.69
2022-09-25T17:43:15.736Z,94127.88
2022-09-25T17:45:57.189Z,94141.34
2022-09-25T17:48:30.135Z,94161.44
2022-09-25T17:50:59.123Z,94144.78
2022-09-25T17:53:31.899Z,94141.00
2022-09-25T17:56:00.409Z,94147.97
2022-09-25T17:58:29.079Z,94109.38
2022-09-25T18:00:59.397Z,94150.81
2022-09-25T18:03:26.735Z,94145.72
2022-09-25T18:05:54.067Z,94155.72
2022-09-25T18:08:21.012Z,94150.63
2022-09-25T18:10:48.891Z,94134.34
2022-09-25T18:13:26.152Z,94162.28
2022-09-25T18:15:58.927Z,94155.00
2022-09-25T18:18:46.242Z,94150.59
2022-09-25T18:21:31.658Z,94161.50
2022-09-25T18:23:58.394Z,94152.69
2022-09-25T18:26:30.454Z,94182.84
2022-09-25T18:28:57.917Z,94162.09
2022-09-25T18:31:25.464Z,94157.84
2022-09-25T18:33:54.919Z,94183.41
2022-09-25T18:36:22.673Z,94181.59
2022-09-25T18:38:49.324Z,94148.03
2022-09-25T18:41:16.138Z,94177.50
2022-09-25T18:43:43.556Z,94186.06
2022-09-25T18:46:10.920Z,94172.88
2022-09-25T18:48:37.982Z,94153.25
2022-09-25T18:51:07.265Z,94164.75
2022-09-25T18:53:34.167Z,94172.16
2022-09-25T18:56:01.041Z,94182.47
2022-09-25T18:58:29.950Z,94163.69
2022-09-25T19:00:56.790Z,94154.50
2022-09-25T19:03:23.896Z,94172.13
2022-09-25T19:06:02.987Z,94161.16
2022-09-25T19:08:34.121Z,94160.63
2022-09-25T19:11:00.926Z,94177.66
2022-09-25T19:13:29.342Z,94184.94
2022-09-25T19:15:58.973Z,94161.56
2022-09-25T19:18:25.950Z,94173.19
2022-09-25T19:20:54.600Z,94163.59
2022-09-25T19:23:26.360Z,94184.31
2022-09-25T19:25:59.154Z,94157.84
2022-09-25T19:28:27.023Z,94161.41
2022-09-25T19:31:06.960Z,94160.69
2022-09-25T19:33:36.643Z,94149.50
2022-09-25T19:36:06.531Z,94175.34
2022-09-25T19:38:35.731Z,94167.28
2022-09-25T19:41:03.154Z,94168.06
2022-09-25T19:43:34.720Z,94135.19
2022-09-25T19:46:02.272Z,94145.53
2022-09-25T19:48:28.972Z,94168.25
2022-09-25T19:50:55.920Z,94185.88
2022-09-25T19:53:22.966Z,94168.81
2022-09-25T19:55:54.724Z,94154.59
2022-09-25T19:58:25.025Z,94182.13
2022-09-25T20:00:53.362Z,94161.50
2022-09-25T20:03:20.323Z,94185.88
2022-09-25T20:05:49.323Z,94178.88
2022-09-25T20:08:16.076Z,94177.38
2022-09-25T20:10:43.299Z,94188.66
2022-09-25T20:13:10.293Z,94161.16
2022-09-25T20:15:37.118Z,94144.19
2022-09-25T20:18:03.937Z,94145.31
2022-09-25T20:20:30.737Z,94150.78
2022-09-25T20:22:58.406Z,94149.97
2022-09-25T20:25:28.089Z,94154.44
2022-09-25T20:27:55.242Z,94164.00
2022-09-25T20:30:24.422Z,94169.38
2022-09-25T20:32:52.358Z,94164.75
2022-09-25T20:35:19.810Z,94147.78
2022-09-25T20:37:46.915Z,94177.06
2022-09-25T20:40:16.807Z,94157.25
2022-09-25T20:42:43.765Z,94156.66
2022-09-25T20:45:11.306Z,94146.94
2022-09-25T20:47:45.883Z,94129.91
2022-09-25T20:50:13.557Z,94162.97
2022-09-25T20:52:40.349Z,94168.19
2022-09-25T20:55:07.402Z,94144.34
2022-09-25T20:57:34.261Z,94185.28
2022-09-25T21:00:02.117Z,94184.00
2022-09-25T21:02:29.743Z,94190.19
2022-09-25T21:04:57.087Z,94188.44
2022-09-25T21:07:25.668Z,94147.81
2022-09-25T21:09:53.685Z,94191.06
2022-09-25T21:12:21.554Z,94180.63
2022-09-25T21:14:49.807Z,94204.31
2022-09-25T21:17:17.121Z,94189.59
2022-09-25T21:19:44.341Z,94187.31
2022-09-25T21:22:11.297Z,94191.63
2022-09-25T21:24:38.122Z,94202.50
2022-09-25T21:27:04.778Z,94196.94
2022-09-25T21:29:32.035Z,94183.56
2022-09-25T21:31:59.051Z,94205.22
2022-09-25T21:34:26.794Z,94206.59
2022-09-25T21:36:53.913Z,94223.38
2022-09-25T21:39:21.317Z,94208.63
2022-09-25T21:41:49.919Z,94212.22
2022-09-25T21:44:20.133Z,94175.91
2022-09-25T21:46:46.850Z,94168.59
2022-09-25T21:49:16.916Z,94200.69
2022-09-25T21:51:45.249Z,94201.25
2022-09-25T21:54:14.123Z,94205.03
2022-09-25T21:56:41.483Z,94199.88
2022-09-25T21:59:09.504Z,94192.16
2022-09-25T22:01:38.737Z,94180.38
2022-09-25T22:04:06.998Z,94160.78
2022-09-25T22:06:41.723Z,94191.56
2022-09-25T22:09:30.271Z,94195.84
2022-09-25T22:11:57.440Z,94191.03
2022-09-25T22:14:24.298Z,94179.13
2022-09-25T22:16:52.731Z,94215.09
2022-09-25T22:19:21.075Z,94191.94
2022-09-25T22:21:49.993Z,94198.84
2022-09-25T22:24:17.022Z,94190.78
2022-09-25T22:26:45.958Z,94171.06
2022-09-25T22:29:13.657Z,94194.75
2022-09-25T22:31:44.421Z,94201.59
2022-09-25T22:34:16.203Z,94208.75
2022-09-25T22:36:42.893Z,94204.09
2022-09-25T22:39:12.624Z,94194.31
2022-09-25T22:41:39.458Z,94149.94
2022-09-25T22:44:06.185Z,94186.50
2022-09-25T22:46:32.957Z,94193.44
2022-09-25T22:48:59.945Z,94186.97
2022-09-25T22:51:26.977Z,94121.81
2022-09-25T22:53:54.609Z,94150.31
2022-09-25T22:56:23.215Z,94145.28
2022-09-25T22:58:53.386Z,94162.28
2022-09-25T23:01:22.706Z,94173.94
2022-09-25T23:03:53.861Z,94154.41
2022-09-25T23:06:20.679Z,94149.69
2022-09-25T23:08:54.675Z,94122.53
2022-09-25T23:11:22.262Z,94162.84
2022-09-25T23:14:09.758Z,94173.38
2022-09-25T23:16:36.620Z,94159.75
2022-09-25T23:19:04.269Z,94156.44
2022-09-25T23:21:31.760Z,94144.78
2022-09-25T23:24:01.373Z,94144.38
2022-09-25T23:26:29.049Z,94158.53
2022-09-25T23:28:58.407Z,94147.94
2022-09-25T23:31:26.004Z,94116.78
2022-09-25T23:33:53.005Z,94120.59
2022-09-25T23:36:22.186Z,94133.09
2022-09-25T23:39:10.092Z,94119.28
2022-09-25T23:41:39.306Z,94133.41
2022-09-25T23:44:08.683Z,94157.28
2022-09-25T23:46:38.745Z,94145.13
2022-09-25T23:49:06.275Z,94123.28
2022-09-25T23:51:33.594Z,94121.47
2022-09-25T23:54:01.725Z,94127.50
2022-09-25T23:56:31.070Z,94149.19
2022-09-25T23:59:00.565Z,94167.31
